Time,TemperatureF,DewpointF,PressureIn,WindDirection,WindDirectionDegrees,WindSpeedMPH,WindSpeedGustMPH,Humidity,HourlyPrecipIn,Conditions,Clouds,dailyrainin,SoftwareType,DateUTC
2013-03-14 00:00:00,51.3,34.3,30.36,SE,136,5.0,5.0,52,0.00,,,0.00,Wunderground v.1.15,2013-03-14 05:00:00,
2013-03-14 00:08:00,51.3,34.0,30.36,SE,140,6.0,9.0,52,0.00,,,0.00,weatherlink.com 1.10,2013-03-14 05:08:00,
2013-03-14 00:10:00,51.3,34.3,30.35,SSE,157,5.0,6.0,52,0.00,,,0.00,Wunderground v.1.15,2013-03-14 05:10:00,
2013-03-14 00:15:00,51.4,34.3,30.35,SSE,157,6.0,7.0,52,0.00,,,0.00,Wunderground v.1.15,2013-03-14 05:15:00,
2013-03-14 00:24:00,51.4,34.0,30.35,SE,136,3.0,8.0,52,0.00,,,0.00,weatherlink.com 1.10,2013-03-14 05:24:00,
2013-03-14 00:25:00,51.4,34.3,30.35,SE,132,6.0,8.0,52,0.00,,,0.00,Wunderground v.1.15,2013-03-14 05:25:00,
2013-03-14 00:30:00,51.2,34.2,30.35,SE,130,6.0,7.0,52,0.00,,,0.00,Wunderground v.1.15,2013-03-14 05:30:00,
2013-03-14 00:35:00,51.1,34.1,30.35,SSE,152,5.0,7.0,52,0.00,,,0.00,Wunderground v.1.15,2013-03-14 05:35:00,
2013-03-14 00:39:00,50.9,34.0,30.35,SE,141,4.0,7.0,52,0.00,,,0.00,weatherlink.com 1.10,2013-03-14 05:39:00,
2013-03-14 00:45:00,50.8,34.3,30.35,SE,140,4.0,4.0,53,0.00,,,0.00,Wunderground v.1.15,2013-03-14 05:45:00,
2013-03-14 00:50:00,50.7,34.2,30.35,SE,129,4.0,4.0,53,0.00,,,0.00,Wunderground v.1.15,2013-03-14 05:50:00,
2013-03-14 00:54:00,50.7,34.0,30.35,SE,129,2.0,6.0,53,0.00,,,0.00,weatherlink.com 1.10,2013-03-14 05:54:00,
2013-03-14 01:00:00,50.7,34.2,30.35,ESE,121,3.0,4.0,53,0.00,,,0.00,Wunderground v.1.15,2013-03-14 06:00:00,
2013-03-14 01:05:00,50.6,34.1,30.35,SE,143,4.0,4.0,53,0.00,,,0.00,Wunderground v.1.15,2013-03-14 06:05:00,
2013-03-14 01:10:00,50.6,34.1,30.35,SSE,160,4.0,4.0,53,0.00,,,0.00,Wunderground v.1.15,2013-03-14 06:10:00,
2013-03-14 01:15:00,50.5,34.0,30.35,SSE,166,4.0,4.0,53,0.00,,,0.00,Wunderground v.1.15,2013-03-14 06:15:00,
2013-03-14 01:24:00,50.5,34.0,30.35,SSE,150,3.0,7.0,53,0.00,,,0.00,weatherlink.com 1.10,2013-03-14 06:24:00,
2013-03-14 01:25:00,50.5,34.0,30.35,SE,126,4.0,5.0,53,0.00,,,0.00,Wunderground v.1.15,2013-03-14 06:25:00,
2013-03-14 01:30:00,50.5,34.0,30.35,SSE,152,4.0,5.0,53,0.00,,,0.00,Wunderground v.1.15,2013-03-14 06:30:00,
2013-03-14 01:35:00,50.5,34.0,30.35,SE,143,4.0,5.0,53,0.00,,,0.00,Wunderground v.1.15,2013-03-14 06:35:00,
2013-03-14 01:39:00,50.5,34.0,30.35,SE,134,2.0,6.0,53,0.00,,,0.00,weatherlink.com 1.10,2013-03-14 06:39:00,
2013-03-14 01:45:00,50.4,33.9,30.34,SSE,148,4.0,5.0,53,0.00,,,0.00,Wunderground v.1.15,2013-03-14 06:45:00,
2013-03-14 01:54:00,50.2,34.0,30.35,SSE,157,5.0,8.0,54,0.00,,,0.00,weatherlink.com 1.10,2013-03-14 06:54:00,
2013-03-14 02:00:00,50.1,34.1,30.34,SE,134,4.0,4.0,54,0.00,,,0.00,Wunderground v.1.15,2013-03-14 07:00:00,
2013-03-14 02:05:00,50.0,34.5,30.35,SE,136,4.0,4.0,55,0.00,,,0.00,Wunderground v.1.15,2013-03-14 07:05:00,
2013-03-14 02:09:00,49.8,34.0,30.35,SE,126,6.0,7.0,55,0.00,,,0.00,weatherlink.com 1.10,2013-03-14 07:09:00,
2013-03-14 02:15:00,49.6,34.1,30.35,SE,131,5.0,6.0,55,0.00,,,0.00,Wunderground v.1.15,2013-03-14 07:15:00,
2013-03-14 02:20:00,49.5,34.0,30.35,SE,132,5.0,5.0,55,0.00,,,0.00,Wunderground v.1.15,2013-03-14 07:20:00,
2013-03-14 02:24:00,49.4,34.0,30.35,SE,135,3.0,7.0,56,0.00,,,0.00,weatherlink.com 1.10,2013-03-14 07:24:00,
2013-03-14 02:30:00,49.2,34.2,30.34,SE,135,4.0,5.0,56,0.00,,,0.00,Wunderground v.1.15,2013-03-14 07:30:00,
2013-03-14 02:35:00,49.2,34.2,30.35,SE,131,4.0,5.0,56,0.00,,,0.00,Wunderground v.1.15,2013-03-14 07:35:00,
2013-03-14 02:40:00,49.2,34.2,30.35,SE,127,4.0,4.0,56,0.00,,,0.00,Wunderground v.1.15,2013-03-14 07:40:00,
2013-03-14 02:45:00,49.2,34.2,30.35,SE,131,4.0,4.0,56,0.00,,,0.00,Wunderground v.1.15,2013-03-14 07:45:00,
2013-03-14 02:55:00,49.1,34.1,30.35,SSE,159,4.0,5.0,56,0.00,,,0.00,Wunderground v.1.15,2013-03-14 07:55:00,
2013-03-14 02:56:00,49.1,34.0,30.35,SSE,157,2.0,7.0,56,0.00,,,0.00,weatherlink.com 1.10,2013-03-14 07:56:00,
2013-03-14 03:05:00,48.9,34.3,30.34,SE,142,3.0,3.0,57,0.00,,,0.00,Wunderground v.1.15,2013-03-14 08:05:00,
2013-03-14 03:10:00,48.8,34.2,30.34,SE,141,3.0,4.0,57,0.00,,,0.00,Wunderground v.1.15,2013-03-14 08:10:00,
2013-03-14 03:11:00,48.8,34.0,30.34,SE,126,4.0,5.0,57,0.00,,,0.00,weatherlink.com 1.10,2013-03-14 08:11:00,
2013-03-14 03:20:00,48.7,34.1,30.34,SE,144,3.0,3.0,57,0.00,,,0.00,Wunderground v.1.15,2013-03-14 08:20:00,
2013-03-14 03:26:00,48.7,34.0,30.34,SSE,154,3.0,5.0,57,0.00,,,0.00,weatherlink.com 1.10,2013-03-14 08:26:00,
2013-03-14 03:35:00,48.7,34.1,30.34,SSE,164,3.0,4.0,57,0.00,,,0.00,Wunderground v.1.15,2013-03-14 08:35:00,
2013-03-14 03:41:00,48.6,34.0,30.33,SSE,159,4.0,7.0,57,0.00,,,0.00,weatherlink.com 1.10,2013-03-14 08:41:00,
2013-03-14 03:45:00,48.6,34.0,30.33,SSE,161,4.0,5.0,57,0.00,,,0.00,Wunderground v.1.15,2013-03-14 08:45:00,
2013-03-14 03:55:00,48.3,34.2,30.33,SSE,161,4.0,5.0,58,0.00,,,0.00,Wunderground v.1.15,2013-03-14 08:55:00,
2013-03-14 04:05:00,48.2,34.1,30.32,SE,142,5.0,7.0,58,0.00,,,0.00,Wunderground v.1.15,2013-03-14 09:05:00,
2013-03-14 04:10:00,47.9,34.3,30.32,SSE,148,5.0,5.0,59,0.00,,,0.00,Wunderground v.1.15,2013-03-14 09:10:00,
2013-03-14 04:11:00,47.9,34.0,30.32,SSE,157,3.0,7.0,59,0.00,,,0.00,weatherlink.com 1.10,2013-03-14 09:11:00,
2013-03-14 04:15:00,47.9,34.3,30.32,SSE,153,5.0,5.0,59,0.00,,,0.00,Wunderground v.1.15,2013-03-14 09:15:00,
2013-03-14 04:25:00,47.9,34.3,30.31,SSE,166,5.0,7.0,59,0.00,,,0.00,Wunderground v.1.15,2013-03-14 09:25:00,
2013-03-14 04:35:00,47.5,33.9,30.31,South,171,4.0,6.0,59,0.00,,,0.00,Wunderground v.1.15,2013-03-14 09:35:00,
2013-03-14 04:41:00,47.4,34.0,30.31,SSE,155,4.0,8.0,60,0.00,,,0.00,weatherlink.com 1.10,2013-03-14 09:41:00,
2013-03-14 04:45:00,47.4,34.2,30.31,SSE,152,4.0,5.0,60,0.00,,,0.00,Wunderground v.1.15,2013-03-14 09:45:00,
2013-03-14 04:50:00,47.3,34.1,30.31,SSE,150,5.0,5.0,60,0.00,,,0.00,Wunderground v.1.15,2013-03-14 09:50:00,
2013-03-14 04:55:00,47.1,34.3,30.31,SSE,148,4.0,5.0,61,0.00,,,0.00,Wunderground v.1.15,2013-03-14 09:55:00,
2013-03-14 04:56:00,47.1,34.0,30.31,SE,144,3.0,6.0,61,0.00,,,0.00,weatherlink.com 1.10,2013-03-14 09:56:00,
2013-03-14 05:05:00,47.0,34.2,30.31,SSE,167,4.0,4.0,61,0.00,,,0.00,Wunderground v.1.15,2013-03-14 10:05:00,
2013-03-14 05:15:00,47.0,34.2,30.30,SSE,162,5.0,5.0,61,0.00,,,0.00,Wunderground v.1.15,2013-03-14 10:15:00,
2013-03-14 05:20:00,46.9,34.1,30.30,SSE,155,6.0,7.0,61,0.00,,,0.00,Wunderground v.1.15,2013-03-14 10:20:00,
2013-03-14 05:25:00,46.9,33.7,30.30,SSE,164,6.0,7.0,60,0.00,,,0.00,Wunderground v.1.15,2013-03-14 10:25:00,
2013-03-14 05:30:00,46.8,33.6,30.31,South,171,5.0,5.0,60,0.00,,,0.00,Wunderground v.1.15,2013-03-14 10:30:00,
2013-03-14 05:35:00,46.7,34.0,30.30,SSE,153,5.0,6.0,61,0.00,,,0.00,Wunderground v.1.15,2013-03-14 10:35:00,
2013-03-14 05:45:00,46.7,34.0,30.30,SSE,161,5.0,5.0,61,0.00,,,0.00,Wunderground v.1.15,2013-03-14 10:45:00,
2013-03-14 05:50:00,46.7,33.5,30.31,SSE,157,6.0,6.0,60,0.00,,,0.00,Wunderground v.1.15,2013-03-14 10:50:00,
2013-03-14 05:57:00,46.6,33.0,30.30,SE,143,8.0,11.0,60,0.00,,,0.00,weatherlink.com 1.10,2013-03-14 10:57:00,
2013-03-14 06:05:00,46.8,33.6,30.30,SSE,156,6.0,7.0,60,0.00,,,0.00,Wunderground v.1.15,2013-03-14 11:05:00,
2013-03-14 06:10:00,46.8,33.6,30.30,SSE,156,6.0,6.0,60,0.00,,,0.00,Wunderground v.1.15,2013-03-14 11:10:00,
2013-03-14 06:12:00,46.8,33.0,30.30,South,173,10.0,10.0,60,0.00,,,0.00,weatherlink.com 1.10,2013-03-14 11:12:00,
2013-03-14 06:15:00,46.9,33.3,30.30,SSE,159,6.0,6.0,59,0.00,,,0.00,Wunderground v.1.15,2013-03-14 11:15:00,
2013-03-14 06:20:00,46.9,33.3,30.30,SSE,150,6.0,7.0,59,0.00,,,0.00,Wunderground v.1.15,2013-03-14 11:20:00,
2013-03-14 06:25:00,46.8,33.2,30.30,SE,129,5.0,7.0,59,0.00,,,0.00,Wunderground v.1.15,2013-03-14 11:25:00,
2013-03-14 06:27:00,46.8,33.0,30.30,SE,146,5.0,10.0,59,0.00,,,0.00,weatherlink.com 1.10,2013-03-14 11:27:00,
2013-03-14 06:35:00,46.7,33.5,30.30,SE,130,4.0,5.0,60,0.00,,,0.00,Wunderground v.1.15,2013-03-14 11:35:00,
2013-03-14 06:42:00,46.5,33.0,30.30,SE,125,9.0,9.0,60,0.00,,,0.00,weatherlink.com 1.10,2013-03-14 11:42:00,
2013-03-14 06:50:00,46.1,33.0,30.30,SE,135,6.0,6.0,60,0.00,,,0.00,Wunderground v.1.15,2013-03-14 11:50:00,
2013-03-14 06:55:00,46.0,33.3,30.30,ESE,121,6.0,6.0,61,0.00,,,0.00,Wunderground v.1.15,2013-03-14 11:55:00,
2013-03-14 06:57:00,46.0,33.0,30.30,SE,126,6.0,10.0,61,0.00,,,0.00,weatherlink.com 1.10,2013-03-14 11:57:00,
2013-03-14 07:05:00,45.7,33.4,30.30,SE,145,5.0,6.0,62,0.00,,,0.00,Wunderground v.1.15,2013-03-14 12:05:00,
2013-03-14 07:10:00,45.7,33.4,30.30,SE,134,5.0,7.0,62,0.00,,,0.00,Wunderground v.1.15,2013-03-14 12:10:00,
2013-03-14 07:12:00,45.7,33.0,30.30,ESE,121,5.0,8.0,62,0.00,,,0.00,weatherlink.com 1.10,2013-03-14 12:12:00,
2013-03-14 07:15:00,45.7,33.4,30.30,SE,134,4.0,7.0,62,0.00,,,0.00,Wunderground v.1.15,2013-03-14 12:15:00,
2013-03-14 07:20:00,45.6,33.3,30.30,SE,131,4.0,4.0,62,0.00,,,0.00,Wunderground v.1.15,2013-03-14 12:20:00,
2013-03-14 07:25:00,45.6,33.3,30.30,ESE,122,4.0,4.0,62,0.00,,,0.00,Wunderground v.1.15,2013-03-14 12:25:00,
2013-03-14 07:27:00,45.6,33.0,30.30,ESE,121,4.0,10.0,62,0.00,,,0.00,weatherlink.com 1.10,2013-03-14 12:27:00,
2013-03-14 07:35:00,45.7,33.4,30.31,SE,128,5.0,5.0,62,0.00,,,0.00,Wunderground v.1.15,2013-03-14 12:35:00,
2013-03-14 07:40:00,45.9,33.6,30.31,SE,144,5.0,5.0,62,0.00,,,0.00,Wunderground v.1.15,2013-03-14 12:40:00,
2013-03-14 07:42:00,46.0,33.0,30.31,SE,132,3.0,9.0,62,0.00,,,0.00,weatherlink.com 1.10,2013-03-14 12:42:00,
2013-03-14 07:50:00,46.2,33.5,30.31,SE,145,5.0,5.0,61,0.00,,,0.00,Wunderground v.1.15,2013-03-14 12:50:00,
2013-03-14 07:55:00,46.3,33.6,30.31,SE,135,6.0,6.0,61,0.00,,,0.00,Wunderground v.1.15,2013-03-14 12:55:00,
2013-03-14 07:59:00,46.4,33.0,30.31,ESE,117,7.0,9.0,61,0.00,,,0.00,weatherlink.com 1.10,2013-03-14 12:59:00,
2013-03-14 08:05:00,46.6,34.3,30.31,SE,136,5.0,6.0,62,0.00,,,0.00,Wunderground v.1.15,2013-03-14 13:05:00,
2013-03-14 08:13:00,47.0,34.0,30.32,SSE,161,4.0,7.0,62,0.00,,,0.00,weatherlink.com 1.10,2013-03-14 13:13:00,
2013-03-14 08:20:00,47.2,34.8,30.32,SE,146,3.0,3.0,62,0.00,,,0.00,Wunderground v.1.15,2013-03-14 13:20:00,
2013-03-14 08:25:00,47.3,34.9,30.32,SSE,158,3.0,3.0,62,0.00,,,0.00,Wunderground v.1.15,2013-03-14 13:25:00,
2013-03-14 08:28:00,47.4,36.0,30.32,SSE,150,4.0,8.0,64,0.00,,,0.00,weatherlink.com 1.10,2013-03-14 13:28:00,
2013-03-14 08:35:00,47.4,35.4,30.32,SSE,158,5.0,5.0,63,0.00,,,0.00,Wunderground v.1.15,2013-03-14 13:35:00,
2013-03-14 08:40:00,47.6,36.0,30.32,SSE,157,5.0,5.0,64,0.00,,,0.00,Wunderground v.1.15,2013-03-14 13:40:00,
2013-03-14 08:44:00,47.8,35.0,30.32,South,182,4.0,8.0,62,0.00,,,0.00,weatherlink.com 1.10,2013-03-14 13:44:00,
2013-03-14 08:50:00,48.0,35.6,30.33,South,181,5.0,7.0,62,0.00,,,0.00,Wunderground v.1.15,2013-03-14 13:50:00,
2013-03-14 08:55:00,48.4,36.4,30.33,SE,143,5.0,7.0,63,0.00,,,0.00,Wunderground v.1.15,2013-03-14 13:55:00,
2013-03-14 08:59:00,48.6,36.0,30.32,South,180,7.0,9.0,63,0.00,,,0.00,weatherlink.com 1.10,2013-03-14 13:59:00,
2013-03-14 09:05:00,48.9,36.4,30.33,SSE,159,5.0,6.0,62,0.00,,,0.00,Wunderground v.1.15,2013-03-14 14:05:00,
2013-03-14 09:10:00,49.4,37.3,30.33,South,175,5.0,7.0,63,0.00,,,0.00,Wunderground v.1.15,2013-03-14 14:10:00,
2013-03-14 09:14:00,49.9,37.0,30.32,South,169,7.0,9.0,62,0.00,,,0.00,weatherlink.com 1.10,2013-03-14 14:14:00,
2013-03-14 09:20:00,50.3,37.8,30.32,South,173,6.0,6.0,62,0.00,,,0.00,Wunderground v.1.15,2013-03-14 14:20:00,
2013-03-14 09:25:00,50.8,37.8,30.32,South,174,6.0,6.0,61,0.00,,,0.00,Wunderground v.1.15,2013-03-14 14:25:00,
2013-03-14 09:28:00,51.0,38.0,30.32,SSW,192,6.0,11.0,61,0.00,,,0.00,weatherlink.com 1.10,2013-03-14 14:28:00,
2013-03-14 09:35:00,51.5,38.5,30.32,South,179,7.0,9.0,61,0.00,,,0.00,Wunderground v.1.15,2013-03-14 14:35:00,
2013-03-14 09:44:00,52.5,39.0,30.32,South,180,5.0,11.0,60,0.00,,,0.00,weatherlink.com 1.10,2013-03-14 14:44:00,
2013-03-14 09:50:00,53.3,39.3,30.32,South,185,7.0,8.0,59,0.00,,,0.00,Wunderground v.1.15,2013-03-14 14:50:00,
2013-03-14 09:59:00,54.5,40.0,30.32,SSW,211,7.0,11.0,58,0.00,,,0.00,weatherlink.com 1.10,2013-03-14 14:59:00,
2013-03-14 10:00:00,54.7,40.2,30.32,SSW,205,8.0,8.0,58,0.00,,,0.00,Wunderground v.1.15,2013-03-14 15:00:00,
2013-03-14 10:10:00,56.2,40.2,30.32,SSW,198,9.0,12.0,55,0.00,,,0.00,Wunderground v.1.15,2013-03-14 15:10:00,
2013-03-14 10:14:00,56.9,40.0,30.31,South,190,7.0,17.0,54,0.00,,,0.00,weatherlink.com 1.10,2013-03-14 15:14:00,
2013-03-14 10:20:00,57.7,40.7,30.31,South,190,11.0,15.0,53,0.00,,,0.00,Wunderground v.1.15,2013-03-14 15:20:00,
2013-03-14 10:29:00,58.5,40.0,30.31,SW,218,11.0,17.0,51,0.00,,,0.00,weatherlink.com 1.10,2013-03-14 15:29:00,
2013-03-14 10:35:00,59.1,41.0,30.31,South,180,11.0,11.0,51,0.00,,,0.00,Wunderground v.1.15,2013-03-14 15:35:00,
2013-03-14 10:44:00,60.0,41.0,30.31,South,174,15.0,18.0,50,0.00,,,0.00,weatherlink.com 1.10,2013-03-14 15:44:00,
2013-03-14 10:50:00,60.7,41.9,30.31,South,173,11.0,11.0,50,0.00,,,0.00,Wunderground v.1.15,2013-03-14 15:50:00,
2013-03-14 10:55:00,61.3,41.4,30.31,SSW,209,11.0,11.0,48,0.00,,,0.00,Wunderground v.1.15,2013-03-14 15:55:00,
2013-03-14 10:59:00,61.6,42.0,30.31,South,181,16.0,21.0,48,0.00,,,0.00,weatherlink.com 1.10,2013-03-14 15:59:00,
2013-03-14 11:05:00,62.4,42.4,30.31,SSW,198,11.0,14.0,48,0.00,,,0.00,Wunderground v.1.15,2013-03-14 16:05:00,
2013-03-14 11:14:00,63.5,42.0,30.30,SSW,207,11.0,16.0,46,0.00,,,0.00,weatherlink.com 1.10,2013-03-14 16:14:00,
2013-03-14 11:20:00,64.1,42.3,30.30,SSW,209,10.0,10.0,45,0.00,,,0.00,Wunderground v.1.15,2013-03-14 16:20:00,
2013-03-14 11:25:00,64.8,42.9,30.30,SW,215,9.0,11.0,45,0.00,,,0.00,Wunderground v.1.15,2013-03-14 16:25:00,
2013-03-14 11:29:00,64.8,43.0,30.30,SW,214,9.0,18.0,45,0.00,,,0.00,weatherlink.com 1.10,2013-03-14 16:29:00,
2013-03-14 11:35:00,65.4,42.9,30.29,SW,234,11.0,11.0,44,0.00,,,0.00,Wunderground v.1.15,2013-03-14 16:35:00,
2013-03-14 11:45:00,66.4,43.2,30.29,SW,233,11.0,11.0,43,0.00,,,0.00,Wunderground v.1.15,2013-03-14 16:45:00,
2013-03-14 11:55:00,67.1,43.2,30.29,SW,215,11.0,11.0,42,0.00,,,0.00,Wunderground v.1.15,2013-03-14 16:55:00,
2013-03-14 12:00:00,67.2,43.3,30.29,SW,228,12.0,16.0,42,0.00,,,0.00,Wunderground v.1.15,2013-03-14 17:00:00,
2013-03-14 12:01:00,67.3,43.0,30.29,SW,217,17.0,21.0,42,0.00,,,0.00,weatherlink.com 1.10,2013-03-14 17:01:00,
2013-03-14 12:10:00,67.4,43.5,30.28,SW,215,13.0,13.0,42,0.00,,,0.00,Wunderground v.1.15,2013-03-14 17:10:00,
2013-03-14 12:15:00,67.7,43.8,30.28,SSW,213,13.0,13.0,42,0.00,,,0.00,Wunderground v.1.15,2013-03-14 17:15:00,
2013-03-14 12:16:00,67.7,44.0,30.28,SW,229,16.0,21.0,42,0.00,,,0.00,weatherlink.com 1.10,2013-03-14 17:16:00,
2013-03-14 12:25:00,68.2,44.2,30.28,SW,221,12.0,14.0,42,0.00,,,0.00,Wunderground v.1.15,2013-03-14 17:25:00,
2013-03-14 12:30:00,68.3,43.7,30.28,SW,214,12.0,12.0,41,0.00,,,0.00,Wunderground v.1.15,2013-03-14 17:30:00,
2013-03-14 12:31:00,68.4,44.0,30.28,SW,217,9.0,20.0,42,0.00,,,0.00,weatherlink.com 1.10,2013-03-14 17:31:00,
2013-03-14 12:35:00,68.7,44.7,30.27,SW,223,12.0,12.0,42,0.00,,,0.00,Wunderground v.1.15,2013-03-14 17:35:00,
2013-03-14 12:40:00,69.1,44.4,30.27,SW,216,10.0,10.0,41,0.00,,,0.00,Wunderground v.1.15,2013-03-14 17:40:00,
2013-03-14 12:45:00,69.2,45.1,30.27,WSW,245,10.0,10.0,42,0.00,,,0.00,Wunderground v.1.15,2013-03-14 17:45:00,
2013-03-14 12:46:00,69.3,45.0,30.27,SW,226,13.0,16.0,42,0.00,,,0.00,weatherlink.com 1.10,2013-03-14 17:46:00,
2013-03-14 12:50:00,69.5,45.4,30.27,SW,231,11.0,11.0,42,0.00,,,0.00,Wunderground v.1.15,2013-03-14 17:50:00,
2013-03-14 13:00:00,69.5,44.8,30.27,SSW,202,13.0,17.0,41,0.00,,,0.00,Wunderground v.1.15,2013-03-14 18:00:00,
2013-03-14 13:05:00,69.9,45.1,30.26,SSW,202,13.0,17.0,41,0.00,,,0.00,Wunderground v.1.15,2013-03-14 18:05:00,
2013-03-14 13:10:00,70.4,45.6,30.26,SSW,204,11.0,11.0,41,0.00,,,0.00,Wunderground v.1.15,2013-03-14 18:10:00,
2013-03-14 13:20:00,70.6,45.7,30.26,SW,228,11.0,11.0,41,0.00,,,0.00,Wunderground v.1.15,2013-03-14 18:20:00,
2013-03-14 13:25:00,71.4,45.8,30.26,SSW,204,10.0,14.0,40,0.00,,,0.00,Wunderground v.1.15,2013-03-14 18:25:00,
2013-03-14 13:30:00,71.0,45.5,30.25,SW,221,12.0,14.0,40,0.00,,,0.00,Wunderground v.1.15,2013-03-14 18:30:00,
2013-03-14 13:31:00,71.0,45.0,30.25,SW,217,11.0,21.0,40,0.00,,,0.00,weatherlink.com 1.10,2013-03-14 18:31:00,
2013-03-14 13:35:00,71.1,46.2,30.25,SSW,200,12.0,14.0,41,0.00,,,0.00,Wunderground v.1.15,2013-03-14 18:35:00,
2013-03-14 13:45:00,71.7,46.1,30.25,SW,219,11.0,11.0,40,0.00,,,0.00,Wunderground v.1.15,2013-03-14 18:45:00,
2013-03-14 13:46:00,71.8,45.0,30.25,SW,221,12.0,22.0,39,0.00,,,0.00,weatherlink.com 1.10,2013-03-14 18:46:00,
2013-03-14 13:55:00,71.6,45.3,30.25,WSW,246,10.0,15.0,39,0.00,,,0.00,Wunderground v.1.15,2013-03-14 18:55:00,
2013-03-14 14:00:00,71.8,45.5,30.25,SSW,201,10.0,11.0,39,0.00,,,0.00,Wunderground v.1.15,2013-03-14 19:00:00,
2013-03-14 14:01:00,71.8,45.0,30.25,SSW,207,7.0,19.0,39,0.00,,,0.00,weatherlink.com 1.10,2013-03-14 19:01:00,
2013-03-14 14:05:00,72.3,45.3,30.25,SW,219,10.0,13.0,38,0.00,,,0.00,Wunderground v.1.15,2013-03-14 19:05:00,
2013-03-14 14:10:00,72.1,45.8,30.24,SSW,205,9.0,9.0,39,0.00,,,0.00,Wunderground v.1.15,2013-03-14 19:10:00,
2013-03-14 14:15:00,72.3,45.9,30.24,SW,215,9.0,9.0,39,0.00,,,0.00,Wunderground v.1.15,2013-03-14 19:15:00,
2013-03-14 14:16:00,72.4,46.0,30.24,SW,221,8.0,16.0,39,0.00,,,0.00,weatherlink.com 1.10,2013-03-14 19:16:00,
2013-03-14 14:25:00,72.4,44.6,30.24,SW,234,9.0,10.0,37,0.00,,,0.00,Wunderground v.1.15,2013-03-14 19:25:00,
2013-03-14 14:30:00,72.1,45.1,30.23,SSW,199,10.0,10.0,38,0.00,,,0.00,Wunderground v.1.15,2013-03-14 19:30:00,
2013-03-14 14:31:00,72.1,45.0,30.23,South,190,8.0,14.0,38,0.00,,,0.00,weatherlink.com 1.10,2013-03-14 19:31:00,
2013-03-14 14:40:00,72.1,45.1,30.23,South,177,10.0,11.0,38,0.00,,,0.00,Wunderground v.1.15,2013-03-14 19:40:00,
2013-03-14 14:47:00,72.4,45.0,30.22,SSW,205,11.0,16.0,37,0.00,,,0.00,weatherlink.com 1.10,2013-03-14 19:47:00,
2013-03-14 14:55:00,72.8,45.0,30.22,SW,231,10.0,10.0,37,0.00,,,0.00,Wunderground v.1.15,2013-03-14 19:55:00,
2013-03-14 15:02:00,72.6,45.0,30.22,SW,225,5.0,16.0,37,0.00,,,0.00,weatherlink.com 1.10,2013-03-14 20:02:00,
2013-03-14 15:10:00,72.9,44.4,30.21,SSW,210,8.0,8.0,36,0.00,,,0.00,Wunderground v.1.15,2013-03-14 20:10:00,
2013-03-14 15:15:00,73.0,44.5,30.21,SW,224,8.0,8.0,36,0.00,,,0.00,Wunderground v.1.15,2013-03-14 20:15:00,
2013-03-14 15:17:00,73.1,45.0,30.21,SSW,194,10.0,14.0,36,0.00,,,0.00,weatherlink.com 1.10,2013-03-14 20:17:00,
2013-03-14 15:25:00,73.5,43.4,30.20,SSW,213,8.0,9.0,34,0.00,,,0.00,Wunderground v.1.15,2013-03-14 20:25:00,
2013-03-14 15:30:00,74.0,43.8,30.20,SW,225,9.0,9.0,34,0.00,,,0.00,Wunderground v.1.15,2013-03-14 20:30:00,
2013-03-14 15:32:00,74.1,44.0,30.20,SSW,200,11.0,15.0,34,0.00,,,0.00,weatherlink.com 1.10,2013-03-14 20:32:00,
2013-03-14 15:40:00,74.2,44.0,30.20,WSW,241,9.0,9.0,34,0.00,,,0.00,Wunderground v.1.15,2013-03-14 20:40:00,
2013-03-14 15:47:00,74.7,44.0,30.20,SSW,213,4.0,11.0,33,0.00,,,0.00,weatherlink.com 1.10,2013-03-14 20:47:00,
2013-03-14 15:55:00,75.2,43.3,30.20,SW,232,7.0,10.0,32,0.00,,,0.00,Wunderground v.1.15,2013-03-14 20:55:00,
2013-03-14 16:00:00,74.8,43.8,30.20,SSW,213,7.0,7.0,33,0.00,,,0.00,Wunderground v.1.15,2013-03-14 21:00:00,
2013-03-14 16:02:00,74.6,44.0,30.20,SSW,202,1.0,13.0,33,0.00,,,0.00,weatherlink.com 1.10,2013-03-14 21:02:00,
2013-03-14 16:10:00,75.3,44.2,30.19,SW,221,5.0,5.0,33,0.00,,,0.00,Wunderground v.1.15,2013-03-14 21:10:00,
2013-03-14 16:15:00,75.7,44.5,30.19,SW,214,7.0,8.0,33,0.00,,,0.00,Wunderground v.1.15,2013-03-14 21:15:00,
2013-03-14 16:17:00,75.7,44.0,30.19,SW,217,7.0,15.0,32,0.00,,,0.00,weatherlink.com 1.10,2013-03-14 21:17:00,
2013-03-14 16:25:00,75.5,44.4,30.19,SSW,209,9.0,9.0,33,0.00,,,0.00,Wunderground v.1.15,2013-03-14 21:25:00,
2013-03-14 16:30:00,76.0,44.0,30.18,SW,236,8.0,10.0,32,0.00,,,0.00,Wunderground v.1.15,2013-03-14 21:30:00,
2013-03-14 16:32:00,76.1,44.0,30.18,SW,228,8.0,12.0,32,0.00,,,0.00,weatherlink.com 1.10,2013-03-14 21:32:00,
2013-03-14 16:40:00,76.2,43.3,30.18,SSW,203,8.0,8.0,31,0.00,,,0.00,Wunderground v.1.15,2013-03-14 21:40:00,
2013-03-14 16:48:00,76.4,43.0,30.18,SW,214,7.0,14.0,30,0.00,,,0.00,weatherlink.com 1.10,2013-03-14 21:48:00,
2013-03-14 16:55:00,76.8,43.0,30.18,SSW,202,7.0,9.0,30,0.00,,,0.00,Wunderground v.1.15,2013-03-14 21:55:00,
2013-03-14 17:00:00,76.7,43.8,30.17,SSW,210,7.0,10.0,31,0.00,,,0.00,Wunderground v.1.15,2013-03-14 22:00:00,
2013-03-14 17:04:00,76.3,43.0,30.18,South,181,5.0,13.0,31,0.00,,,0.00,weatherlink.com 1.10,2013-03-14 22:04:00,
2013-03-14 17:10:00,76.2,43.3,30.17,South,181,8.0,11.0,31,0.00,,,0.00,Wunderground v.1.15,2013-03-14 22:10:00,
2013-03-14 17:15:00,76.7,42.9,30.17,West,259,7.0,11.0,30,0.00,,,0.00,Wunderground v.1.15,2013-03-14 22:15:00,
2013-03-14 17:19:00,76.6,43.0,30.17,SW,224,6.0,11.0,30,0.00,,,0.00,weatherlink.com 1.10,2013-03-14 22:19:00,
2013-03-14 17:20:00,76.6,42.8,30.17,SSW,202,7.0,7.0,30,0.00,,,0.00,Wunderground v.1.15,2013-03-14 22:20:00,
2013-03-14 17:25:00,76.5,42.7,30.17,SW,229,8.0,8.0,30,0.00,,,0.00,Wunderground v.1.15,2013-03-14 22:25:00,
2013-03-14 17:34:00,76.3,44.0,30.17,South,190,6.0,14.0,32,0.00,,,0.00,weatherlink.com 1.10,2013-03-14 22:34:00,
2013-03-14 17:35:00,76.2,44.2,30.17,SSW,199,8.0,9.0,32,0.00,,,0.00,Wunderground v.1.15,2013-03-14 22:35:00,
2013-03-14 17:40:00,76.0,44.0,30.17,South,175,9.0,9.0,32,0.00,,,0.00,Wunderground v.1.15,2013-03-14 22:40:00,
2013-03-14 17:45:00,76.1,44.1,30.17,SSW,207,8.0,11.0,32,0.00,,,0.00,Wunderground v.1.15,2013-03-14 22:45:00,
2013-03-14 17:48:00,76.1,44.0,30.17,South,191,13.0,14.0,32,0.00,,,0.00,weatherlink.com 1.10,2013-03-14 22:48:00,
2013-03-14 17:55:00,76.0,44.0,30.17,South,170,9.0,13.0,32,0.00,,,0.00,Wunderground v.1.15,2013-03-14 22:55:00,
2013-03-14 18:00:00,76.2,44.2,30.16,South,184,8.0,14.0,32,0.00,,,0.00,Wunderground v.1.15,2013-03-14 23:00:00,
2013-03-14 18:04:00,76.0,44.0,30.16,South,184,9.0,15.0,32,0.00,,,0.00,weatherlink.com 1.10,2013-03-14 23:04:00,
2013-03-14 18:10:00,76.1,44.1,30.16,SSW,208,10.0,10.0,32,0.00,,,0.00,Wunderground v.1.15,2013-03-14 23:10:00,
2013-03-14 18:15:00,76.1,44.1,30.16,SSE,162,8.0,10.0,32,0.00,,,0.00,Wunderground v.1.15,2013-03-14 23:15:00,
2013-03-14 18:19:00,76.0,44.0,30.16,South,191,16.0,18.0,32,0.00,,,0.00,weatherlink.com 1.10,2013-03-14 23:19:00,
2013-03-14 18:25:00,75.6,43.7,30.16,SSW,200,10.0,16.0,32,0.00,,,0.00,Wunderground v.1.15,2013-03-14 23:25:00,
2013-03-14 18:30:00,75.4,43.5,30.16,South,191,10.0,10.0,32,0.00,,,0.00,Wunderground v.1.15,2013-03-14 23:30:00,
2013-03-14 18:34:00,75.3,43.0,30.16,SSW,209,13.0,16.0,32,0.00,,,0.00,weatherlink.com 1.10,2013-03-14 23:34:00,
2013-03-14 18:35:00,75.3,44.2,30.16,SSW,211,9.0,11.0,33,0.00,,,0.00,Wunderground v.1.15,2013-03-14 23:35:00,
2013-03-14 18:45:00,75.0,43.9,30.16,South,175,8.0,11.0,33,0.00,,,0.00,Wunderground v.1.15,2013-03-14 23:45:00,
2013-03-14 18:49:00,74.8,45.0,30.16,SSW,204,5.0,14.0,34,0.00,,,0.00,weatherlink.com 1.10,2013-03-14 23:49:00,
2013-03-14 18:55:00,74.6,44.4,30.16,SSW,197,8.0,8.0,34,0.00,,,0.00,Wunderground v.1.15,2013-03-14 23:55:00,
2013-03-14 19:00:00,74.4,44.2,30.16,SSE,166,8.0,8.0,34,0.00,,,0.00,Wunderground v.1.15,2013-03-15 00:00:00,
2013-03-14 19:04:00,74.1,45.0,30.16,South,186,7.0,14.0,35,0.00,,,0.00,weatherlink.com 1.10,2013-03-15 00:04:00,
2013-03-14 19:05:00,74.0,44.6,30.16,South,188,8.0,8.0,35,0.00,,,0.00,Wunderground v.1.15,2013-03-15 00:05:00,
2013-03-14 19:10:00,73.9,44.5,30.16,SSW,207,8.0,8.0,35,0.00,,,0.00,Wunderground v.1.15,2013-03-15 00:10:00,
2013-03-14 19:19:00,73.4,45.0,30.16,South,183,11.0,12.0,36,0.00,,,0.00,weatherlink.com 1.10,2013-03-15 00:19:00,
2013-03-14 19:25:00,73.0,44.5,30.16,South,171,8.0,8.0,36,0.00,,,0.00,Wunderground v.1.15,2013-03-15 00:25:00,
2013-03-14 19:30:00,72.7,44.2,30.15,South,173,9.0,9.0,36,0.00,,,0.00,Wunderground v.1.15,2013-03-15 00:30:00,
2013-03-14 19:34:00,72.4,45.0,30.15,SSW,199,8.0,15.0,37,0.00,,,0.00,weatherlink.com 1.10,2013-03-15 00:34:00,
2013-03-14 19:35:00,72.4,44.6,30.15,South,180,9.0,15.0,37,0.00,,,0.00,Wunderground v.1.15,2013-03-15 00:35:00,
2013-03-14 19:40:00,72.1,45.1,30.15,South,186,9.0,10.0,38,0.00,,,0.00,Wunderground v.1.15,2013-03-15 00:40:00,
2013-03-14 19:49:00,71.5,44.0,30.15,South,182,7.0,13.0,38,0.00,,,0.00,weatherlink.com 1.10,2013-03-15 00:49:00,
2013-03-14 19:55:00,71.0,44.8,30.15,South,188,7.0,7.0,39,0.00,,,0.00,Wunderground v.1.15,2013-03-15 00:55:00,
2013-03-14 20:00:00,70.8,44.6,30.15,South,176,7.0,7.0,39,0.00,,,0.00,Wunderground v.1.15,2013-03-15 01:00:00,
2013-03-14 20:04:00,70.6,45.0,30.15,South,190,8.0,11.0,40,0.00,,,0.00,weatherlink.com 1.10,2013-03-15 01:04:00,
2013-03-14 20:10:00,70.2,44.7,30.15,South,180,7.0,7.0,40,0.00,,,0.00,Wunderground v.1.15,2013-03-15 01:10:00,
2013-03-14 20:19:00,69.8,44.0,30.15,South,188,6.0,9.0,40,0.00,,,0.00,weatherlink.com 1.10,2013-03-15 01:19:00,
2013-03-14 20:25:00,69.5,44.8,30.15,South,174,5.0,6.0,41,0.00,,,0.00,Wunderground v.1.15,2013-03-15 01:25:00,
2013-03-14 20:30:00,69.2,44.5,30.15,SSE,166,5.0,5.0,41,0.00,,,0.00,Wunderground v.1.15,2013-03-15 01:30:00,
2013-03-14 20:34:00,68.9,45.0,30.15,South,176,4.0,7.0,42,0.00,,,0.00,weatherlink.com 1.10,2013-03-15 01:34:00,
2013-03-14 20:40:00,68.5,44.5,30.15,South,173,4.0,4.0,42,0.00,,,0.00,Wunderground v.1.15,2013-03-15 01:40:00,
2013-03-14 20:45:00,68.2,44.8,30.16,SSE,162,3.0,6.0,43,0.00,,,0.00,Wunderground v.1.15,2013-03-15 01:45:00,
2013-03-14 20:49:00,68.0,45.0,30.16,South,171,2.0,7.0,43,0.00,,,0.00,weatherlink.com 1.10,2013-03-15 01:49:00,
2013-03-14 20:55:00,67.7,45.0,30.16,South,172,4.0,4.0,44,0.00,,,0.00,Wunderground v.1.15,2013-03-15 01:55:00,
2013-03-14 21:00:00,67.4,44.7,30.16,South,170,4.0,6.0,44,0.00,,,0.00,Wunderground v.1.15,2013-03-15 02:00:00,
2013-03-14 21:04:00,67.2,44.0,30.16,South,179,3.0,6.0,44,0.00,,,0.00,weatherlink.com 1.10,2013-03-15 02:04:00,
2013-03-14 21:10:00,66.8,44.8,30.15,SSE,161,4.0,5.0,45,0.00,,,0.00,Wunderground v.1.15,2013-03-15 02:10:00,
2013-03-14 21:15:00,66.5,44.5,30.15,South,171,4.0,5.0,45,0.00,,,0.00,Wunderground v.1.15,2013-03-15 02:15:00,
2013-03-14 21:19:00,66.3,45.0,30.15,SSE,165,5.0,6.0,46,0.00,,,0.00,weatherlink.com 1.10,2013-03-15 02:19:00,
2013-03-14 21:25:00,66.0,44.6,30.15,South,171,4.0,4.0,46,0.00,,,0.00,Wunderground v.1.15,2013-03-15 02:25:00,
2013-03-14 21:30:00,65.8,45.0,30.15,South,169,4.0,4.0,47,0.00,,,0.00,Wunderground v.1.15,2013-03-15 02:30:00,
2013-03-14 21:34:00,65.5,45.0,30.15,South,169,3.0,8.0,47,0.00,,,0.00,weatherlink.com 1.10,2013-03-15 02:34:00,
2013-03-14 21:40:00,65.2,44.5,30.15,SSE,163,5.0,5.0,47,0.00,,,0.00,Wunderground v.1.15,2013-03-15 02:40:00,
2013-03-14 21:45:00,64.9,44.7,30.15,South,174,5.0,5.0,48,0.00,,,0.00,Wunderground v.1.15,2013-03-15 02:45:00,
2013-03-14 21:50:00,64.7,45.1,30.15,South,178,5.0,6.0,49,0.00,,,0.00,Wunderground v.1.15,2013-03-15 02:50:00,
2013-03-14 21:51:00,64.7,45.0,30.15,SSE,167,6.0,9.0,49,0.00,,,0.00,weatherlink.com 1.10,2013-03-15 02:51:00,
2013-03-14 22:00:00,64.1,45.1,30.15,South,174,6.0,6.0,50,0.00,,,0.00,Wunderground v.1.15,2013-03-15 03:00:00,
2013-03-14 22:10:00,63.4,44.9,30.16,South,175,6.0,6.0,51,0.00,,,0.00,Wunderground v.1.15,2013-03-15 03:10:00,
2013-03-14 22:15:00,63.2,45.3,30.16,South,169,6.0,8.0,52,0.00,,,0.00,Wunderground v.1.15,2013-03-15 03:15:00,
2013-03-14 22:20:00,63.0,45.1,30.16,South,175,6.0,6.0,52,0.00,,,0.00,Wunderground v.1.15,2013-03-15 03:20:00,
2013-03-14 22:21:00,63.0,45.0,30.16,South,173,5.0,9.0,52,0.00,,,0.00,weatherlink.com 1.10,2013-03-15 03:21:00,
2013-03-14 22:30:00,63.0,45.6,30.16,SSE,168,6.0,7.0,53,0.00,,,0.00,Wunderground v.1.15,2013-03-15 03:30:00,
2013-03-14 22:35:00,63.0,45.6,30.16,South,183,7.0,8.0,53,0.00,,,0.00,Wunderground v.1.15,2013-03-15 03:35:00,
2013-03-14 22:36:00,63.0,45.0,30.16,South,184,8.0,9.0,53,0.00,,,0.00,weatherlink.com 1.10,2013-03-15 03:36:00,
2013-03-14 22:45:00,63.2,45.8,30.16,South,171,7.0,9.0,53,0.00,,,0.00,Wunderground v.1.15,2013-03-15 03:45:00,
2013-03-14 22:50:00,63.2,45.3,30.16,South,169,7.0,7.0,52,0.00,,,0.00,Wunderground v.1.15,2013-03-15 03:50:00,
2013-03-14 22:51:00,63.2,45.0,30.16,South,180,6.0,10.0,52,0.00,,,0.00,weatherlink.com 1.10,2013-03-15 03:51:00,
2013-03-14 22:55:00,63.1,45.7,30.16,SSW,194,6.0,7.0,53,0.00,,,0.00,Wunderground v.1.15,2013-03-15 03:55:00,
2013-03-14 23:00:00,63.1,45.7,30.16,South,175,6.0,7.0,53,0.00,,,0.00,Wunderground v.1.15,2013-03-15 04:00:00,
2013-03-14 23:05:00,63.1,45.7,30.16,South,182,7.0,7.0,53,0.00,,,0.00,Wunderground v.1.15,2013-03-15 04:05:00,
2013-03-14 23:06:00,63.0,45.0,30.16,SSW,192,7.0,12.0,53,0.00,,,0.00,weatherlink.com 1.10,2013-03-15 04:06:00,
2013-03-14 23:15:00,62.9,45.5,30.16,SSE,165,7.0,7.0,53,0.00,,,0.00,Wunderground v.1.15,2013-03-15 04:15:00,
2013-03-14 23:20:00,62.9,46.0,30.16,South,187,6.0,8.0,54,0.00,,,0.00,Wunderground v.1.15,2013-03-15 04:20:00,
2013-03-14 23:21:00,62.8,46.0,30.16,SSE,167,8.0,11.0,54,0.00,,,0.00,weatherlink.com 1.10,2013-03-15 04:21:00,
2013-03-14 23:25:00,62.9,46.0,30.16,South,175,7.0,8.0,54,0.00,,,0.00,Wunderground v.1.15,2013-03-15 04:25:00,
2013-03-14 23:35:00,62.9,46.0,30.15,South,183,7.0,7.0,54,0.00,,,0.00,Wunderground v.1.15,2013-03-15 04:35:00,
2013-03-14 23:40:00,62.9,46.0,30.16,South,190,7.0,10.0,54,0.00,,,0.00,Wunderground v.1.15,2013-03-15 04:40:00,
2013-03-14 23:50:00,62.5,46.1,30.15,South,186,7.0,7.0,55,0.00,,,0.00,Wunderground v.1.15,2013-03-15 04:50:00,
2013-03-14 23:55:00,62.3,45.9,30.15,SSW,195,6.0,8.0,55,0.00,,,0.00,Wunderground v.1.15,2013-03-15 04:55:00,